AAL738 KDFW-KORD
Flight info
| Callsign | AAL738 |
|---|---|
| Flight time | 1h 37m |
| Altitude | 35000 |
| Route | AKUNA9 MLC SGF WELTS TRTLL6 |
| Aircraft | B738/M-SDE2E3FGHIRWXY/LB1 |
Departure
| Time | 2026-05-01 13:25 |
|---|---|
| Airport | Dallas Fort Worth International Airport (KDFW) |
Arrival
| Time | 2026-05-01 15:03 |
|---|---|
| Airport | Chicago O'Hare International Airport (KORD) |
| Time | Latitude | Longitude | Altitude | Speed | Heading |
|---|---|---|---|---|---|
| 2026-05-01 13:01 | 32.89640 | -97.03507 | 542 ft | 0 kts | 292° |
| 2026-05-01 13:16 | 32.89635 | -97.03492 | 597 ft | 4 kts | 289° |
| 2026-05-01 13:16 | 32.89628 | -97.03463 | 597 ft | 4 kts | 286° |
| 2026-05-01 13:16 | 32.89619 | -97.03437 | 597 ft | 4 kts | 332° |
| 2026-05-01 13:17 | 32.89621 | -97.03431 | 597 ft | 0 kts | 44° |
| 2026-05-01 13:20 | 32.89621 | -97.03430 | 597 ft | 0 kts | 44° |
| 2026-05-01 13:20 | 32.89627 | -97.03405 | 597 ft | 6 kts | 94° |
| 2026-05-01 13:20 | 32.89617 | -97.03347 | 597 ft | 9 kts | 98° |
| 2026-05-01 13:21 | 32.89583 | -97.03198 | 597 ft | 11 kts | 163° |
| 2026-05-01 13:21 | 32.89497 | -97.03196 | 597 ft | 17 kts | 180° |
| 2026-05-01 13:21 | 32.89352 | -97.03197 | 597 ft | 23 kts | 180° |
| 2026-05-01 13:21 | 32.89197 | -97.03198 | 597 ft | 22 kts | 180° |
| 2026-05-01 13:22 | 32.89046 | -97.03198 | 597 ft | 21 kts | 180° |
| 2026-05-01 13:22 | 32.88900 | -97.03199 | 597 ft | 21 kts | 180° |
| 2026-05-01 13:22 | 32.88759 | -97.03200 | 597 ft | 20 kts | 180° |
| 2026-05-01 13:22 | 32.88621 | -97.03200 | 597 ft | 19 kts | 180° |
| 2026-05-01 13:23 | 32.88487 | -97.03201 | 597 ft | 19 kts | 180° |
| 2026-05-01 13:23 | 32.88358 | -97.03202 | 597 ft | 18 kts | 180° |
| 2026-05-01 13:23 | 32.88234 | -97.03202 | 597 ft | 18 kts | 180° |
| 2026-05-01 13:23 | 32.88114 | -97.03202 | 597 ft | 16 kts | 180° |
| 2026-05-01 13:24 | 32.88050 | -97.03137 | 597 ft | 13 kts | 92° |
| 2026-05-01 13:24 | 32.88059 | -97.03031 | 597 ft | 13 kts | 54° |
| 2026-05-01 13:24 | 32.88150 | -97.03006 | 597 ft | 18 kts | 1° |
| 2026-05-01 13:25 | 32.89220 | -97.03002 | 597 ft | 138 kts | 0° |
| 2026-05-01 13:25 | 32.90309 | -97.03005 | 857 ft | 163 kts | 2° |
| 2026-05-01 13:25 | 32.91443 | -97.03007 | 1607 ft | 163 kts | 6° |
| 2026-05-01 13:25 | 32.92601 | -97.02967 | 2302 ft | 171 kts | 7° |
| 2026-05-01 13:26 | 32.93849 | -97.02935 | 2889 ft | 187 kts | 8° |
| 2026-05-01 13:26 | 32.95177 | -97.02884 | 3521 ft | 195 kts | 8° |
| 2026-05-01 13:26 | 32.96572 | -97.02827 | 3979 ft | 207 kts | 8° |
| 2026-05-01 13:26 | 32.98059 | -97.02764 | 4460 ft | 220 kts | 8° |
| 2026-05-01 13:27 | 32.99645 | -97.02704 | 4895 ft | 239 kts | 7° |
| 2026-05-01 13:27 | 33.01351 | -97.02643 | 5529 ft | 249 kts | 7° |
| 2026-05-01 13:27 | 33.04856 | -97.02527 | 7196 ft | 251 kts | 5° |
| 2026-05-01 13:28 | 33.08379 | -97.02054 | 8583 ft | 262 kts | 17° |
| 2026-05-01 13:28 | 33.10110 | -97.01294 | 9244 ft | 270 kts | 23° |
| 2026-05-01 13:29 | 33.13058 | -96.99707 | 9980 ft | 286 kts | 24° |
| 2026-05-01 13:29 | 33.17503 | -96.97275 | 10347 ft | 327 kts | 23° |
| 2026-05-01 13:30 | 33.25653 | -96.92857 | 12201 ft | 362 kts | 21° |
| 2026-05-01 13:31 | 33.30320 | -96.90329 | 13478 ft | 374 kts | 20° |
| 2026-05-01 13:31 | 33.37558 | -96.86402 | 15302 ft | 390 kts | 19° |
| 2026-05-01 13:32 | 33.42575 | -96.83676 | 16537 ft | 401 kts | 18° |
| 2026-05-01 13:33 | 33.50282 | -96.79122 | 18336 ft | 422 kts | 22° |
| 2026-05-01 13:33 | 33.55473 | -96.75723 | 19482 ft | 429 kts | 21° |
| 2026-05-01 13:34 | 33.60801 | -96.72257 | 20421 ft | 441 kts | 21° |
| 2026-05-01 13:34 | 33.66231 | -96.68756 | 21389 ft | 450 kts | 21° |
| 2026-05-01 13:35 | 33.71819 | -96.65159 | 22285 ft | 460 kts | 21° |
| 2026-05-01 13:35 | 33.74658 | -96.63331 | 22701 ft | 465 kts | 21° |
| 2026-05-01 13:35 | 33.80428 | -96.59609 | 23510 ft | 475 kts | 21° |
| 2026-05-01 13:36 | 33.83350 | -96.57722 | 23874 ft | 480 kts | 21° |
| 2026-05-01 13:36 | 33.86315 | -96.55805 | 24251 ft | 485 kts | 21° |
| 2026-05-01 13:36 | 33.92318 | -96.51919 | 24901 ft | 494 kts | 22° |
| 2026-05-01 13:37 | 33.95361 | -96.49946 | 25218 ft | 499 kts | 22° |
| 2026-05-01 13:37 | 33.98429 | -96.47955 | 25528 ft | 503 kts | 22° |
| 2026-05-01 13:37 | 34.01529 | -96.45941 | 25848 ft | 508 kts | 22° |
| 2026-05-01 13:37 | 34.04611 | -96.43938 | 26184 ft | 511 kts | 22° |
| 2026-05-01 13:38 | 34.10840 | -96.39551 | 26684 ft | 527 kts | 27° |
| 2026-05-01 13:38 | 34.13894 | -96.37048 | 26971 ft | 532 kts | 29° |
| 2026-05-01 13:38 | 34.16930 | -96.34470 | 27302 ft | 535 kts | 30° |
| 2026-05-01 13:39 | 34.19979 | -96.31871 | 27588 ft | 539 kts | 30° |
| 2026-05-01 13:39 | 34.23066 | -96.29268 | 27840 ft | 543 kts | 29° |
| 2026-05-01 13:39 | 34.26187 | -96.26671 | 28076 ft | 547 kts | 29° |
| 2026-05-01 13:39 | 34.29343 | -96.24072 | 28336 ft | 550 kts | 29° |
| 2026-05-01 13:40 | 34.32523 | -96.21467 | 28648 ft | 554 kts | 28° |
| 2026-05-01 13:40 | 34.35724 | -96.18849 | 28911 ft | 558 kts | 28° |
| 2026-05-01 13:40 | 34.38948 | -96.16210 | 29156 ft | 561 kts | 28° |
| 2026-05-01 13:40 | 34.42194 | -96.13548 | 29402 ft | 565 kts | 29° |
| 2026-05-01 13:41 | 34.45412 | -96.10904 | 29645 ft | 568 kts | 29° |
| 2026-05-01 13:41 | 34.48690 | -96.08205 | 29945 ft | 571 kts | 28° |
| 2026-05-01 13:41 | 34.51975 | -96.05496 | 30243 ft | 572 kts | 28° |
| 2026-05-01 13:41 | 34.55274 | -96.02771 | 30539 ft | 573 kts | 28° |
| 2026-05-01 13:42 | 34.58569 | -96.00048 | 30888 ft | 573 kts | 29° |
| 2026-05-01 13:42 | 34.61855 | -95.97328 | 31367 ft | 570 kts | 28° |
| 2026-05-01 13:42 | 34.65129 | -95.94617 | 31821 ft | 567 kts | 29° |
| 2026-05-01 13:42 | 34.68390 | -95.91915 | 32139 ft | 568 kts | 29° |
| 2026-05-01 13:43 | 34.71660 | -95.89207 | 32390 ft | 570 kts | 29° |
| 2026-05-01 13:43 | 34.74943 | -95.86484 | 32666 ft | 571 kts | 29° |
| 2026-05-01 13:43 | 34.78230 | -95.83753 | 32984 ft | 571 kts | 29° |
| 2026-05-01 13:43 | 34.81512 | -95.81023 | 33322 ft | 571 kts | 29° |
| 2026-05-01 13:44 | 34.84746 | -95.78330 | 33650 ft | 571 kts | 30° |
| 2026-05-01 13:44 | 34.87975 | -95.75517 | 34152 ft | 568 kts | 32° |
| 2026-05-01 13:44 | 34.91117 | -95.72613 | 34555 ft | 566 kts | 33° |
| 2026-05-01 13:44 | 34.94212 | -95.69661 | 34894 ft | 564 kts | 33° |
| 2026-05-01 13:45 | 34.97302 | -95.66686 | 35049 ft | 567 kts | 33° |
| 2026-05-01 13:45 | 35.03555 | -95.60693 | 35126 ft | 576 kts | 33° |
| 2026-05-01 13:46 | 35.09936 | -95.54647 | 35128 ft | 582 kts | 33° |
| 2026-05-01 13:46 | 35.16341 | -95.48596 | 35142 ft | 582 kts | 32° |
| 2026-05-01 13:47 | 35.22651 | -95.42619 | 35116 ft | 572 kts | 32° |
| 2026-05-01 13:47 | 35.28939 | -95.36653 | 35123 ft | 572 kts | 32° |
| 2026-05-01 13:48 | 35.35228 | -95.30676 | 35115 ft | 572 kts | 32° |
| 2026-05-01 13:48 | 35.41526 | -95.24676 | 35159 ft | 574 kts | 32° |
| 2026-05-01 13:49 | 35.47835 | -95.18652 | 35132 ft | 575 kts | 32° |
| 2026-05-01 13:49 | 35.54152 | -95.12606 | 35148 ft | 575 kts | 32° |
| 2026-05-01 13:50 | 35.60419 | -95.06596 | 35151 ft | 575 kts | 32° |
| 2026-05-01 13:50 | 35.66726 | -95.00535 | 35164 ft | 575 kts | 32° |
| 2026-05-01 13:51 | 35.73026 | -94.94469 | 35151 ft | 575 kts | 31° |
| 2026-05-01 13:51 | 35.79320 | -94.88396 | 35141 ft | 574 kts | 31° |
| 2026-05-01 13:52 | 35.85605 | -94.82319 | 35136 ft | 574 kts | 31° |
| 2026-05-01 13:52 | 35.91881 | -94.76238 | 35143 ft | 573 kts | 31° |
| 2026-05-01 13:53 | 35.98148 | -94.70153 | 35146 ft | 572 kts | 31° |
| 2026-05-01 13:53 | 36.07496 | -94.61055 | 35156 ft | 572 kts | 31° |
| 2026-05-01 13:54 | 36.13743 | -94.54959 | 35146 ft | 572 kts | 31° |
| 2026-05-01 13:54 | 36.19987 | -94.48853 | 35191 ft | 572 kts | 31° |
| 2026-05-01 13:55 | 36.26243 | -94.42723 | 35160 ft | 573 kts | 31° |
| 2026-05-01 13:55 | 36.32497 | -94.36581 | 35156 ft | 573 kts | 31° |
| 2026-05-01 13:56 | 36.38737 | -94.30439 | 35166 ft | 573 kts | 31° |
| 2026-05-01 13:56 | 36.44935 | -94.24326 | 35190 ft | 573 kts | 31° |
| 2026-05-01 13:57 | 36.50160 | -94.19164 | 35179 ft | 572 kts | 31° |
| 2026-05-01 13:57 | 36.57406 | -94.11989 | 35151 ft | 572 kts | 31° |
| 2026-05-01 13:58 | 36.63626 | -94.05814 | 35155 ft | 572 kts | 31° |
| 2026-05-01 13:58 | 36.69849 | -93.99625 | 35190 ft | 572 kts | 31° |
| 2026-05-01 13:59 | 36.76079 | -93.93416 | 35165 ft | 572 kts | 31° |
| 2026-05-01 13:59 | 36.82258 | -93.87243 | 35154 ft | 572 kts | 31° |
| 2026-05-01 14:00 | 36.88458 | -93.81037 | 35167 ft | 571 kts | 31° |
| 2026-05-01 14:00 | 36.94649 | -93.74825 | 35171 ft | 570 kts | 30° |
| 2026-05-01 14:01 | 37.00840 | -93.68603 | 35148 ft | 571 kts | 30° |
| 2026-05-01 14:01 | 37.07024 | -93.62372 | 35143 ft | 570 kts | 30° |
| 2026-05-01 14:02 | 37.13197 | -93.56138 | 35148 ft | 569 kts | 30° |
| 2026-05-01 14:02 | 37.19362 | -93.49900 | 35205 ft | 569 kts | 30° |
| 2026-05-01 14:03 | 37.25522 | -93.43654 | 35158 ft | 569 kts | 30° |
| 2026-05-01 14:03 | 37.31675 | -93.37399 | 35129 ft | 568 kts | 30° |
| 2026-05-01 14:04 | 37.37828 | -93.31178 | 35127 ft | 565 kts | 28° |
| 2026-05-01 14:04 | 37.43059 | -93.26299 | 35141 ft | 561 kts | 26° |
| 2026-05-01 14:05 | 37.50437 | -93.19661 | 35149 ft | 560 kts | 26° |
| 2026-05-01 14:05 | 37.56745 | -93.13909 | 35133 ft | 559 kts | 26° |
| 2026-05-01 14:06 | 37.63014 | -93.08106 | 35136 ft | 558 kts | 27° |
| 2026-05-01 14:06 | 37.69251 | -93.02298 | 35198 ft | 556 kts | 26° |
| 2026-05-01 14:07 | 37.75469 | -92.96503 | 35144 ft | 554 kts | 26° |
| 2026-05-01 14:08 | 37.84733 | -92.87853 | 35136 ft | 549 kts | 26° |
| 2026-05-01 14:08 | 37.90828 | -92.82150 | 35151 ft | 547 kts | 26° |
| 2026-05-01 14:09 | 37.96941 | -92.76420 | 35174 ft | 546 kts | 27° |
| 2026-05-01 14:09 | 38.03034 | -92.70693 | 35167 ft | 542 kts | 27° |
| 2026-05-01 14:10 | 38.09082 | -92.64995 | 35164 ft | 539 kts | 26° |
| 2026-05-01 14:10 | 38.15057 | -92.59357 | 35187 ft | 538 kts | 26° |
| 2026-05-01 14:11 | 38.21067 | -92.53677 | 35202 ft | 538 kts | 27° |
| 2026-05-01 14:11 | 38.30073 | -92.45137 | 35168 ft | 536 kts | 27° |
| 2026-05-01 14:12 | 38.36024 | -92.39478 | 35151 ft | 535 kts | 27° |
| 2026-05-01 14:12 | 38.41982 | -92.33802 | 35154 ft | 534 kts | 27° |
| 2026-05-01 14:13 | 38.46927 | -92.29082 | 35161 ft | 534 kts | 27° |
| 2026-05-01 14:13 | 38.53879 | -92.22433 | 35166 ft | 535 kts | 27° |
| 2026-05-01 14:14 | 38.59839 | -92.16720 | 35170 ft | 536 kts | 27° |
| 2026-05-01 14:14 | 38.65820 | -92.10975 | 35224 ft | 538 kts | 27° |
| 2026-05-01 14:15 | 38.71780 | -92.05235 | 35154 ft | 539 kts | 28° |
| 2026-05-01 14:15 | 38.77754 | -91.99465 | 35144 ft | 537 kts | 28° |
| 2026-05-01 14:16 | 38.83725 | -91.93689 | 35149 ft | 535 kts | 28° |
| 2026-05-01 14:16 | 38.89618 | -91.87978 | 35188 ft | 533 kts | 27° |
| 2026-05-01 14:17 | 38.95526 | -91.82240 | 35157 ft | 532 kts | 27° |
| 2026-05-01 14:17 | 39.01360 | -91.76392 | 35139 ft | 539 kts | 36° |
| 2026-05-01 14:18 | 39.06330 | -91.69032 | 35157 ft | 547 kts | 45° |
| 2026-05-01 14:18 | 39.10230 | -91.62611 | 35152 ft | 547 kts | 45° |
| 2026-05-01 14:19 | 39.14977 | -91.54960 | 35152 ft | 546 kts | 43° |
| 2026-05-01 14:19 | 39.19824 | -91.47410 | 35152 ft | 547 kts | 43° |
| 2026-05-01 14:20 | 39.27117 | -91.36031 | 35136 ft | 549 kts | 43° |
| 2026-05-01 14:21 | 39.31969 | -91.28386 | 35134 ft | 551 kts | 43° |
| 2026-05-01 14:21 | 39.36796 | -91.20754 | 35154 ft | 553 kts | 43° |
| 2026-05-01 14:22 | 39.44115 | -91.09155 | 35187 ft | 555 kts | 43° |
| 2026-05-01 14:22 | 39.49002 | -91.01387 | 35195 ft | 556 kts | 43° |
| 2026-05-01 14:23 | 39.53862 | -90.93642 | 35129 ft | 556 kts | 43° |
| 2026-05-01 14:23 | 39.58743 | -90.85852 | 35168 ft | 557 kts | 43° |
| 2026-05-01 14:24 | 39.63632 | -90.78037 | 35129 ft | 557 kts | 43° |
| 2026-05-01 14:24 | 39.68505 | -90.70223 | 35114 ft | 556 kts | 43° |
| 2026-05-01 14:25 | 39.73363 | -90.62414 | 35115 ft | 555 kts | 43° |
| 2026-05-01 14:25 | 39.78174 | -90.54660 | 35120 ft | 554 kts | 43° |
| 2026-05-01 14:26 | 39.85413 | -90.42960 | 35132 ft | 553 kts | 44° |
| 2026-05-01 14:27 | 39.90225 | -90.35154 | 35120 ft | 551 kts | 43° |
| 2026-05-01 14:27 | 39.95014 | -90.27373 | 35128 ft | 549 kts | 43° |
| 2026-05-01 14:28 | 40.00309 | -90.20462 | 35149 ft | 531 kts | 30° |
| 2026-05-01 14:28 | 40.03148 | -90.17400 | 35195 ft | 529 kts | 29° |
| 2026-05-01 14:28 | 40.08858 | -90.11318 | 35117 ft | 530 kts | 30° |
| 2026-05-01 14:29 | 40.14459 | -90.05124 | 35112 ft | 531 kts | 31° |
| 2026-05-01 14:30 | 40.25618 | -89.92472 | 35156 ft | 529 kts | 31° |
| 2026-05-01 14:31 | 40.33932 | -89.83034 | 34787 ft | 521 kts | 31° |
| 2026-05-01 14:31 | 40.36627 | -89.79967 | 34567 ft | 517 kts | 31° |
| 2026-05-01 14:31 | 40.39344 | -89.76875 | 34348 ft | 518 kts | 31° |
| 2026-05-01 14:31 | 40.42077 | -89.73767 | 34124 ft | 521 kts | 31° |
| 2026-05-01 14:32 | 40.44828 | -89.70635 | 33869 ft | 523 kts | 31° |
| 2026-05-01 14:32 | 40.47577 | -89.67498 | 33658 ft | 524 kts | 31° |
| 2026-05-01 14:32 | 40.50323 | -89.64357 | 33332 ft | 520 kts | 32° |
| 2026-05-01 14:32 | 40.53050 | -89.61228 | 32611 ft | 520 kts | 32° |
| 2026-05-01 14:33 | 40.55767 | -89.58111 | 31939 ft | 518 kts | 32° |
| 2026-05-01 14:33 | 40.58483 | -89.54994 | 31230 ft | 518 kts | 33° |
| 2026-05-01 14:33 | 40.61192 | -89.51882 | 30491 ft | 517 kts | 33° |
| 2026-05-01 14:33 | 40.63906 | -89.48762 | 29596 ft | 517 kts | 33° |
| 2026-05-01 14:34 | 40.66610 | -89.45648 | 28682 ft | 515 kts | 33° |
| 2026-05-01 14:34 | 40.69292 | -89.42554 | 28053 ft | 508 kts | 33° |
| 2026-05-01 14:34 | 40.71930 | -89.39505 | 27423 ft | 501 kts | 33° |
| 2026-05-01 14:34 | 40.74501 | -89.36530 | 26829 ft | 493 kts | 34° |
| 2026-05-01 14:35 | 40.77048 | -89.33532 | 26182 ft | 488 kts | 34° |
| 2026-05-01 14:35 | 40.79558 | -89.30538 | 25565 ft | 482 kts | 35° |
| 2026-05-01 14:35 | 40.82027 | -89.27578 | 24957 ft | 476 kts | 35° |
| 2026-05-01 14:35 | 40.84466 | -89.24650 | 24352 ft | 471 kts | 35° |
| 2026-05-01 14:36 | 40.86873 | -89.21764 | 23773 ft | 465 kts | 35° |
| 2026-05-01 14:36 | 40.89258 | -89.18908 | 23078 ft | 460 kts | 36° |
| 2026-05-01 14:36 | 40.91609 | -89.16093 | 22484 ft | 453 kts | 36° |
| 2026-05-01 14:36 | 40.93927 | -89.13316 | 21871 ft | 446 kts | 36° |
| 2026-05-01 14:37 | 40.96203 | -89.10586 | 21320 ft | 438 kts | 37° |
| 2026-05-01 14:37 | 40.98446 | -89.07895 | 20741 ft | 432 kts | 37° |
| 2026-05-01 14:37 | 41.00657 | -89.05240 | 20191 ft | 426 kts | 37° |
| 2026-05-01 14:37 | 41.02834 | -89.02623 | 19650 ft | 420 kts | 37° |
| 2026-05-01 14:38 | 41.04980 | -89.00041 | 19125 ft | 414 kts | 37° |
| 2026-05-01 14:38 | 41.07097 | -88.97491 | 18607 ft | 409 kts | 37° |
| 2026-05-01 14:38 | 41.09166 | -88.94997 | 18059 ft | 404 kts | 37° |
| 2026-05-01 14:38 | 41.11232 | -88.92504 | 17464 ft | 399 kts | 37° |
| 2026-05-01 14:39 | 41.13272 | -88.90040 | 16917 ft | 394 kts | 37° |
| 2026-05-01 14:39 | 41.15289 | -88.87602 | 16387 ft | 389 kts | 37° |
| 2026-05-01 14:39 | 41.17278 | -88.85196 | 15896 ft | 385 kts | 37° |
| 2026-05-01 14:39 | 41.19243 | -88.82816 | 15399 ft | 380 kts | 37° |
| 2026-05-01 14:40 | 41.21187 | -88.80460 | 14909 ft | 376 kts | 37° |
| 2026-05-01 14:40 | 41.23112 | -88.78125 | 14442 ft | 372 kts | 37° |
| 2026-05-01 14:40 | 41.25013 | -88.75818 | 13984 ft | 369 kts | 37° |
| 2026-05-01 14:40 | 41.26901 | -88.73526 | 13476 ft | 365 kts | 37° |
| 2026-05-01 14:41 | 41.28747 | -88.71282 | 13000 ft | 361 kts | 37° |
| 2026-05-01 14:41 | 41.30594 | -88.69035 | 12548 ft | 357 kts | 37° |
| 2026-05-01 14:41 | 41.32414 | -88.66820 | 12088 ft | 353 kts | 37° |
| 2026-05-01 14:41 | 41.34215 | -88.64626 | 11657 ft | 349 kts | 37° |
| 2026-05-01 14:42 | 41.35994 | -88.62458 | 11222 ft | 345 kts | 38° |
| 2026-05-01 14:42 | 41.37750 | -88.60322 | 10997 ft | 335 kts | 37° |
| 2026-05-01 14:42 | 41.39454 | -88.58287 | 10972 ft | 326 kts | 37° |
| 2026-05-01 14:42 | 41.41197 | -88.56232 | 10967 ft | 342 kts | 37° |
| 2026-05-01 14:43 | 41.42995 | -88.54113 | 10932 ft | 345 kts | 37° |
| 2026-05-01 14:43 | 41.44784 | -88.51993 | 10895 ft | 344 kts | 37° |
| 2026-05-01 14:43 | 41.46566 | -88.49876 | 10866 ft | 342 kts | 37° |
| 2026-05-01 14:43 | 41.48340 | -88.47764 | 10842 ft | 342 kts | 37° |
| 2026-05-01 14:44 | 41.50114 | -88.45652 | 10829 ft | 341 kts | 37° |
| 2026-05-01 14:44 | 41.53634 | -88.41454 | 10769 ft | 341 kts | 37° |
| 2026-05-01 14:44 | 41.55407 | -88.39337 | 10762 ft | 342 kts | 38° |
| 2026-05-01 14:45 | 41.57179 | -88.37220 | 10728 ft | 342 kts | 38° |
| 2026-05-01 14:45 | 41.60733 | -88.32970 | 10670 ft | 343 kts | 38° |
| 2026-05-01 14:45 | 41.62512 | -88.30843 | 10652 ft | 343 kts | 38° |
| 2026-05-01 14:46 | 41.64300 | -88.28717 | 10612 ft | 344 kts | 38° |
| 2026-05-01 14:46 | 41.67879 | -88.24463 | 10560 ft | 343 kts | 38° |
| 2026-05-01 14:46 | 41.69661 | -88.22341 | 10524 ft | 342 kts | 38° |
| 2026-05-01 14:47 | 41.71438 | -88.20223 | 10492 ft | 341 kts | 38° |
| 2026-05-01 14:47 | 41.73192 | -88.18129 | 10461 ft | 341 kts | 38° |
| 2026-05-01 14:47 | 41.74960 | -88.16019 | 10439 ft | 340 kts | 38° |
| 2026-05-01 14:48 | 41.78487 | -88.11803 | 10391 ft | 336 kts | 38° |
| 2026-05-01 14:48 | 41.80217 | -88.09730 | 10345 ft | 333 kts | 38° |
| 2026-05-01 14:48 | 41.83588 | -88.05372 | 10292 ft | 330 kts | 41° |
| 2026-05-01 14:49 | 41.86674 | -88.01217 | 10222 ft | 299 kts | 41° |
| 2026-05-01 14:49 | 41.88487 | -87.96501 | 10196 ft | 295 kts | 81° |
| 2026-05-01 14:50 | 41.88546 | -87.92817 | 10019 ft | 295 kts | 88° |
| 2026-05-01 14:50 | 41.88449 | -87.85490 | 9080 ft | 294 kts | 87° |
| 2026-05-01 14:51 | 41.88439 | -87.82758 | 8787 ft | 291 kts | 87° |
| 2026-05-01 14:51 | 41.88420 | -87.77372 | 8192 ft | 291 kts | 87° |
| 2026-05-01 14:52 | 41.88399 | -87.71929 | 7795 ft | 288 kts | 87° |
| 2026-05-01 14:52 | 41.88383 | -87.69276 | 7736 ft | 281 kts | 88° |
| 2026-05-01 14:52 | 41.88367 | -87.63955 | 6951 ft | 288 kts | 87° |
| 2026-05-01 14:53 | 41.88360 | -87.61268 | 6673 ft | 286 kts | 88° |
| 2026-05-01 14:53 | 41.88328 | -87.58633 | 6509 ft | 280 kts | 88° |
| 2026-05-01 14:53 | 41.88320 | -87.56018 | 6208 ft | 279 kts | 87° |
| 2026-05-01 14:53 | 41.88310 | -87.53493 | 6144 ft | 269 kts | 87° |
| 2026-05-01 14:54 | 41.88310 | -87.51002 | 6149 ft | 267 kts | 87° |
| 2026-05-01 14:54 | 41.88342 | -87.48497 | 6104 ft | 269 kts | 81° |
| 2026-05-01 14:54 | 41.88843 | -87.46121 | 6023 ft | 261 kts | 58° |
| 2026-05-01 14:54 | 41.89949 | -87.44274 | 6047 ft | 250 kts | 35° |
| 2026-05-01 14:55 | 41.91454 | -87.43175 | 6014 ft | 246 kts | 14° |
| 2026-05-01 14:55 | 41.93134 | -87.42912 | 5960 ft | 243 kts | 356° |
| 2026-05-01 14:55 | 41.94803 | -87.43079 | 6172 ft | 240 kts | 346° |
| 2026-05-01 14:55 | 41.96294 | -87.44073 | 6085 ft | 247 kts | 314° |
| 2026-05-01 14:56 | 41.97079 | -87.46089 | 6012 ft | 249 kts | 282° |
| 2026-05-01 14:56 | 41.97029 | -87.48414 | 5923 ft | 252 kts | 261° |
| 2026-05-01 14:56 | 41.96695 | -87.50605 | 6035 ft | 231 kts | 268° |
| 2026-05-01 14:56 | 41.96645 | -87.52678 | 6124 ft | 216 kts | 273° |
| 2026-05-01 14:57 | 41.96660 | -87.54659 | 6020 ft | 210 kts | 275° |
| 2026-05-01 14:57 | 41.96714 | -87.58646 | 5189 ft | 213 kts | 272° |
| 2026-05-01 14:57 | 41.96696 | -87.60607 | 4938 ft | 206 kts | 273° |
| 2026-05-01 14:58 | 41.96687 | -87.62502 | 4684 ft | 200 kts | 273° |
| 2026-05-01 14:58 | 41.96672 | -87.64352 | 4396 ft | 196 kts | 272° |
| 2026-05-01 14:58 | 41.96656 | -87.66162 | 4141 ft | 192 kts | 272° |
| 2026-05-01 14:58 | 41.96646 | -87.67946 | 3806 ft | 191 kts | 273° |
| 2026-05-01 14:59 | 41.96636 | -87.69715 | 3549 ft | 186 kts | 272° |
| 2026-05-01 14:59 | 41.96621 | -87.71425 | 3338 ft | 179 kts | 273° |
| 2026-05-01 14:59 | 41.96591 | -87.73060 | 3069 ft | 175 kts | 273° |
| 2026-05-01 14:59 | 41.96584 | -87.74650 | 2828 ft | 164 kts | 273° |
| 2026-05-01 15:00 | 41.96547 | -87.77574 | 2298 ft | 153 kts | 274° |
| 2026-05-01 15:00 | 41.96547 | -87.79005 | 2075 ft | 153 kts | 274° |
| 2026-05-01 15:00 | 41.96556 | -87.80415 | 1900 ft | 149 kts | 275° |
| 2026-05-01 15:01 | 41.96565 | -87.81754 | 1849 ft | 142 kts | 274° |
| 2026-05-01 15:01 | 41.96548 | -87.83079 | 1682 ft | 141 kts | 272° |
| 2026-05-01 15:01 | 41.96549 | -87.84400 | 1495 ft | 142 kts | 275° |
| 2026-05-01 15:01 | 41.96569 | -87.85713 | 1268 ft | 139 kts | 274° |
| 2026-05-01 15:02 | 41.96574 | -87.87000 | 1055 ft | 141 kts | 272° |
| 2026-05-01 15:02 | 41.96575 | -87.87447 | 983 ft | 142 kts | 272° |
| 2026-05-01 15:02 | 41.96573 | -87.89612 | 684 ft | 134 kts | 271° |
| 2026-05-01 15:02 | 41.96576 | -87.90724 | 669 ft | 95 kts | 269° |
| 2026-05-01 15:03 | 41.96574 | -87.91349 | 666 ft | 50 kts | 270° |
| 2026-05-01 15:03 | 41.96604 | -87.91690 | 667 ft | 32 kts | 286° |
| 2026-05-01 15:03 | 41.96669 | -87.91866 | 668 ft | 11 kts | 324° |
| 2026-05-01 15:03 | 41.96732 | -87.91836 | 667 ft | 11 kts | 62° |
| 2026-05-01 15:04 | 41.96737 | -87.91727 | 668 ft | 13 kts | 90° |
| 2026-05-01 15:04 | 41.96737 | -87.91594 | 668 ft | 19 kts | 90° |
| 2026-05-01 15:04 | 41.96738 | -87.91393 | 668 ft | 22 kts | 90° |
| 2026-05-01 15:04 | 41.96738 | -87.91190 | 668 ft | 21 kts | 90° |
| 2026-05-01 15:05 | 41.96738 | -87.90996 | 668 ft | 21 kts | 90° |
| 2026-05-01 15:05 | 41.96738 | -87.90805 | 668 ft | 20 kts | 89° |
| 2026-05-01 15:05 | 41.96739 | -87.90620 | 667 ft | 20 kts | 90° |
| 2026-05-01 15:05 | 41.96739 | -87.90441 | 668 ft | 19 kts | 90° |
| 2026-05-01 15:06 | 41.96739 | -87.90276 | 668 ft | 18 kts | 90° |
| 2026-05-01 15:06 | 41.96740 | -87.90108 | 668 ft | 18 kts | 90° |
| 2026-05-01 15:06 | 41.96739 | -87.89945 | 668 ft | 17 kts | 90° |
| 2026-05-01 15:06 | 41.96740 | -87.89778 | 668 ft | 19 kts | 89° |
| 2026-05-01 15:07 | 41.96740 | -87.89587 | 668 ft | 20 kts | 90° |
| 2026-05-01 15:07 | 41.96763 | -87.89452 | 666 ft | 14 kts | 33° |
| 2026-05-01 15:07 | 41.96855 | -87.89437 | 669 ft | 13 kts | 359° |
| 2026-05-01 15:07 | 41.96946 | -87.89437 | 669 ft | 13 kts | 0° |
| 2026-05-01 15:08 | 41.97035 | -87.89438 | 668 ft | 13 kts | 351° |
| 2026-05-01 15:08 | 41.97092 | -87.89529 | 668 ft | 14 kts | 294° |
| 2026-05-01 15:08 | 41.97154 | -87.89632 | 668 ft | 14 kts | 325° |
| 2026-05-01 15:08 | 41.97235 | -87.89708 | 666 ft | 14 kts | 325° |
| 2026-05-01 15:09 | 41.97282 | -87.89763 | 667 ft | 13 kts | 316° |
| 2026-05-01 15:09 | 41.97377 | -87.89857 | 667 ft | 12 kts | 307° |
| 2026-05-01 15:09 | 41.97396 | -87.89901 | 667 ft | 5 kts | 301° |
| 2026-05-01 15:09 | 41.97427 | -87.89904 | 668 ft | 5 kts | 32° |
| 2026-05-01 15:10 | 41.97452 | -87.89879 | 668 ft | 2 kts | 38° |
| 2026-05-01 15:10 | 41.97455 | -87.89875 | 668 ft | 0 kts | 38° |